createdAt,value
2022-10-28T00:01:41.818Z,9.38
2022-10-28T00:04:11.160Z,8.95
2022-10-28T00:06:38.541Z,8.73
2022-10-28T00:09:09.641Z,8.77
2022-10-28T00:11:39.513Z,9.18
2022-10-28T00:14:08.072Z,8.88
2022-10-28T00:16:37.872Z,9.98
2022-10-28T00:19:06.953Z,9.02
2022-10-28T00:21:36.135Z,9.13
2022-10-28T00:24:04.006Z,9.23
2022-10-28T00:26:32.941Z,8.95
2022-10-28T00:29:01.685Z,8.95
2022-10-28T00:31:30.519Z,8.65
2022-10-28T00:34:00.740Z,9.57
2022-10-28T00:36:31.700Z,8.90
2022-10-28T00:38:59.698Z,9.30
2022-10-28T00:41:28.875Z,8.68
2022-10-28T00:43:58.355Z,8.60
2022-10-28T00:46:29.664Z,8.77
2022-10-28T00:49:02.897Z,9.20
2022-10-28T00:51:31.495Z,9.25
2022-10-28T00:53:59.306Z,8.50
2022-10-28T00:56:28.448Z,9.25
2022-10-28T00:58:57.582Z,9.10
2022-10-28T01:01:25.089Z,8.95
2022-10-28T01:03:52.507Z,8.60
2022-10-28T01:06:21.221Z,9.18
2022-10-28T01:08:48.554Z,9.00
2022-10-28T01:11:27.607Z,9.40
2022-10-28T01:14:13.351Z,8.50
2022-10-28T01:16:43.964Z,8.73
2022-10-28T01:19:31.168Z,9.07
2022-10-28T01:22:08.022Z,8.77
2022-10-28T01:24:48.655Z,8.60
2022-10-28T01:27:37.153Z,9.23
2022-10-28T01:30:09.297Z,8.38
2022-10-28T01:32:44.834Z,8.35
2022-10-28T01:35:17.306Z,8.10
2022-10-28T01:37:50.493Z,8.68
2022-10-28T01:40:23.064Z,8.68
2022-10-28T01:42:54.893Z,8.68
2022-10-28T01:45:26.721Z,8.32
2022-10-28T01:47:58.792Z,8.18
2022-10-28T01:50:28.892Z,8.65
2022-10-28T01:53:00.134Z,9.00
2022-10-28T01:55:29.492Z,8.63
2022-10-28T01:57:58.868Z,8.23
2022-10-28T02:00:26.887Z,9.23
2022-10-28T02:02:56.769Z,8.90
2022-10-28T02:05:44.659Z,8.70
2022-10-28T02:08:47.290Z,9.80
2022-10-28T02:11:26.259Z,9.48
2022-10-28T02:14:00.409Z,9.93
2022-10-28T02:16:32.426Z,9.38
2022-10-28T02:19:08.276Z,9.60
2022-10-28T02:21:44.584Z,9.65
2022-10-28T02:24:16.707Z,10.50
2022-10-28T02:26:48.710Z,9.93
2022-10-28T02:29:18.609Z,10.10
2022-10-28T02:31:48.931Z,10.40
2022-10-28T02:34:19.553Z,9.95
2022-10-28T02:36:50.203Z,10.75
2022-10-28T02:39:18.986Z,9.60
2022-10-28T02:41:50.271Z,10.25
2022-10-28T02:44:19.681Z,10.20
2022-10-28T02:46:48.521Z,10.25
2022-10-28T02:49:16.057Z,10.77
2022-10-28T02:51:47.494Z,10.30
2022-10-28T02:54:16.734Z,10.93
2022-10-28T02:56:51.080Z,10.38
2022-10-28T02:59:18.519Z,10.48
2022-10-28T03:01:46.013Z,10.55
2022-10-28T03:04:13.477Z,10.60
2022-10-28T03:06:40.857Z,10.48
2022-10-28T03:09:09.562Z,10.38
2022-10-28T03:11:36.918Z,10.90
2022-10-28T03:14:04.277Z,12.02
2022-10-28T03:16:31.680Z,11.05
2022-10-28T03:18:59.331Z,11.02
2022-10-28T03:21:26.718Z,10.57
2022-10-28T03:23:54.238Z,11.10
2022-10-28T03:26:22.894Z,10.50
2022-10-28T03:28:50.363Z,9.63
2022-10-28T03:31:17.797Z,10.45
2022-10-28T03:33:45.143Z,10.18
2022-10-28T03:36:12.481Z,10.05
2022-10-28T03:38:39.824Z,11.10
2022-10-28T03:41:07.148Z,10.55
2022-10-28T03:43:35.805Z,11.27
2022-10-28T03:46:03.161Z,10.82
2022-10-28T03:48:30.525Z,11.07
2022-10-28T03:50:57.869Z,10.55
2022-10-28T03:53:27.696Z,11.57
2022-10-28T03:55:58.971Z,11.75
2022-10-28T03:58:26.964Z,11.82
2022-10-28T04:00:56.306Z,12.25
2022-10-28T04:03:25.155Z,12.25
2022-10-28T04:05:52.697Z,12.82
2022-10-28T04:08:20.790Z,11.73
2022-10-28T04:10:48.646Z,11.23
2022-10-28T04:13:16.997Z,11.52
2022-10-28T04:15:44.598Z,11.95
2022-10-28T04:18:13.507Z,11.77
2022-10-28T04:20:41.108Z,11.52
2022-10-28T04:23:09.399Z,12.27
2022-10-28T04:25:36.734Z,13.07
2022-10-28T04:28:04.209Z,12.32
2022-10-28T04:30:31.558Z,12.48
2022-10-28T04:32:58.909Z,12.35
2022-10-28T04:35:27.755Z,12.38
2022-10-28T04:37:55.528Z,11.70
2022-10-28T04:40:23.131Z,11.30
2022-10-28T04:42:50.552Z,12.82
2022-10-28T04:45:18.253Z,13.20
2022-10-28T04:47:45.616Z,12.40
2022-10-28T04:50:12.961Z,12.48
2022-10-28T04:52:41.640Z,12.80
2022-10-28T04:55:09.796Z,13.77
2022-10-28T04:57:37.145Z,13.00
2022-10-28T05:00:05.467Z,13.13
2022-10-28T05:02:32.847Z,13.30
2022-10-28T05:05:03.409Z,12.98
2022-10-28T05:07:30.859Z,11.82
2022-10-28T05:09:59.521Z,11.35
2022-10-28T05:12:26.925Z,13.27
2022-10-28T05:14:54.323Z,12.52
2022-10-28T05:17:21.745Z,12.05
2022-10-28T05:19:49.119Z,12.93
2022-10-28T05:22:16.456Z,13.27
2022-10-28T05:24:43.805Z,12.82
2022-10-28T05:27:12.793Z,12.90
2022-10-28T05:29:40.130Z,13.48
2022-10-28T05:32:07.463Z,12.20
2022-10-28T05:34:34.858Z,12.40
2022-10-28T05:37:02.193Z,13.73
2022-10-28T05:39:29.528Z,13.55
2022-10-28T05:41:56.884Z,13.18
2022-10-28T05:44:25.587Z,13.32
2022-10-28T05:46:54.047Z,13.60
2022-10-28T05:49:21.528Z,13.80
2022-10-28T05:51:48.920Z,13.40
2022-10-28T05:54:16.257Z,13.77
2022-10-28T05:56:43.599Z,13.40
2022-10-28T05:59:10.949Z,14.15
2022-10-28T06:01:40.211Z,13.35
2022-10-28T06:04:07.604Z,13.90
2022-10-28T06:06:35.033Z,13.75
2022-10-28T06:09:02.547Z,13.55
2022-10-28T06:11:28.681Z,13.45
2022-10-28T06:13:56.016Z,13.50
2022-10-28T06:16:23.481Z,13.00
2022-10-28T06:18:52.190Z,13.07
2022-10-28T06:21:19.534Z,12.73
2022-10-28T06:23:47.523Z,12.93
2022-10-28T06:26:14.958Z,13.18
2022-10-28T06:28:42.287Z,13.70
2022-10-28T06:31:09.695Z,13.23
2022-10-28T06:33:37.039Z,12.50
2022-10-28T06:36:06.623Z,12.25
2022-10-28T06:38:33.968Z,12.60
2022-10-28T06:41:01.468Z,12.68
2022-10-28T06:43:28.852Z,11.35
2022-10-28T06:45:56.332Z,12.10
2022-10-28T06:48:25.393Z,11.68
2022-10-28T06:50:55.654Z,11.10
2022-10-28T06:53:24.408Z,10.55
2022-10-28T06:55:55.005Z,10.45
2022-10-28T06:58:22.473Z,10.13
2022-10-28T07:00:53.391Z,10.07
2022-10-28T07:03:23.693Z,10.80
2022-10-28T07:05:51.856Z,9.25
2022-10-28T07:08:19.542Z,9.60
2022-10-28T07:10:56.196Z,9.02
2022-10-28T07:13:23.587Z,8.50
2022-10-28T07:15:54.318Z,8.45
2022-10-28T07:18:21.734Z,8.48
2022-10-28T07:20:49.421Z,7.63
2022-10-28T07:23:17.208Z,7.15
2022-10-28T07:25:45.674Z,7.22
2022-10-28T07:28:14.365Z,6.63
2022-10-28T07:30:41.716Z,6.80
2022-10-28T07:33:09.236Z,7.15
2022-10-28T07:35:36.655Z,6.80
2022-10-28T07:38:04.021Z,6.38
2022-10-28T07:40:31.357Z,6.20
2022-10-28T07:42:59.145Z,6.22
2022-10-28T07:45:27.787Z,6.35
2022-10-28T07:47:55.216Z,6.05
2022-10-28T07:50:22.677Z,5.75
2022-10-28T07:52:50.076Z,6.30
2022-10-28T07:55:17.481Z,5.50
2022-10-28T07:57:44.900Z,5.60
2022-10-28T08:00:12.879Z,5.70
2022-10-28T08:02:41.996Z,5.68
2022-10-28T08:05:09.752Z,5.28
2022-10-28T08:07:38.693Z,5.53
2022-10-28T08:10:07.748Z,5.40
2022-10-28T08:12:35.117Z,5.60
2022-10-28T08:15:02.749Z,5.82
2022-10-28T08:17:30.207Z,5.55
2022-10-28T08:19:58.850Z,5.72
2022-10-28T08:22:26.225Z,5.65
2022-10-28T08:24:53.571Z,5.38
2022-10-28T08:27:20.927Z,5.72
2022-10-28T08:29:48.274Z,5.47
2022-10-28T08:32:15.628Z,5.35
2022-10-28T08:34:43.781Z,5.80
2022-10-28T08:37:12.659Z,5.72
2022-10-28T08:39:40.023Z,6.63
2022-10-28T08:42:22.454Z,5.00
2022-10-28T08:45:16.260Z,5.03
2022-10-28T08:47:49.466Z,4.82
2022-10-28T08:50:19.242Z,5.10
2022-10-28T08:52:52.755Z,8.35
2022-10-28T08:57:51.871Z,11.32
2022-10-28T09:00:22.678Z,13.05
2022-10-28T09:02:57.336Z,21.50
2022-10-28T09:05:26.894Z,13.23
2022-10-28T09:07:55.815Z,14.35
2022-10-28T09:10:35.508Z,7.50
2022-10-28T09:13:07.438Z,8.82
2022-10-28T09:18:17.920Z,7.95
2022-10-28T09:20:51.298Z,6.32
2022-10-28T09:23:23.406Z,4.00
2022-10-28T09:26:07.964Z,3.67
2022-10-28T09:28:47.471Z,3.85
2022-10-28T09:31:21.570Z,3.50
2022-10-28T09:33:57.665Z,5.30
2022-10-28T09:36:28.778Z,4.53
2022-10-28T09:38:58.112Z,10.27
2022-10-28T09:41:26.697Z,6.70
2022-10-28T09:43:55.676Z,3.60
2022-10-28T09:46:24.677Z,4.35
2022-10-28T09:48:53.067Z,3.83
2022-10-28T09:51:28.017Z,4.07
2022-10-28T09:53:58.998Z,3.78
2022-10-28T09:56:27.545Z,3.10
2022-10-28T09:58:56.687Z,3.95
2022-10-28T10:01:24.074Z,3.65
2022-10-28T10:03:52.589Z,3.92
2022-10-28T10:06:23.198Z,3.63
2022-10-28T10:08:50.550Z,3.28
2022-10-28T10:11:27.322Z,3.78
2022-10-28T10:13:55.346Z,4.00
2022-10-28T10:16:27.874Z,3.50
2022-10-28T10:18:58.379Z,3.80
2022-10-28T10:21:41.956Z,4.05
2022-10-28T10:24:26.110Z,3.90
2022-10-28T10:26:55.237Z,3.72
2022-10-28T10:29:23.041Z,3.63
2022-10-28T10:32:04.738Z,4.00
2022-10-28T10:34:32.190Z,3.50
2022-10-28T10:37:00.833Z,3.20
2022-10-28T10:39:34.777Z,3.47
2022-10-28T10:42:03.473Z,3.60
2022-10-28T10:44:33.338Z,3.42
2022-10-28T10:47:30.983Z,2.88
2022-10-28T10:50:21.595Z,3.22
2022-10-28T10:52:50.352Z,3.42
2022-10-28T10:55:23.214Z,2.97
2022-10-28T10:57:52.124Z,3.85
2022-10-28T11:00:21.606Z,2.88
2022-10-28T11:02:52.216Z,3.55
2022-10-28T11:05:27.247Z,3.30
2022-10-28T11:08:04.881Z,3.38
2022-10-28T11:10:34.124Z,3.45
2022-10-28T11:13:07.106Z,3.33
2022-10-28T11:15:34.625Z,3.58
2022-10-28T11:18:20.524Z,3.35
2022-10-28T11:20:54.273Z,3.28
2022-10-28T11:23:36.379Z,3.80
2022-10-28T11:26:05.941Z,3.50
2022-10-28T11:28:52.961Z,3.70
2022-10-28T11:31:44.736Z,4.65
2022-10-28T11:34:24.598Z,3.63
2022-10-28T11:36:58.031Z,3.83
2022-10-28T11:39:28.628Z,3.47
2022-10-28T11:42:04.258Z,3.72
2022-10-28T11:44:45.262Z,3.80
2022-10-28T11:47:25.851Z,3.90
2022-10-28T11:50:08.878Z,3.40
2022-10-28T11:52:50.810Z,3.25
2022-10-28T11:55:27.267Z,2.97
2022-10-28T11:58:04.938Z,3.13
2022-10-28T12:00:44.637Z,3.50
2022-10-28T12:03:29.393Z,3.55
2022-10-28T12:06:03.534Z,3.47
2022-10-28T12:08:42.105Z,3.55
2022-10-28T12:11:18.253Z,3.20
2022-10-28T12:13:51.395Z,3.72
2022-10-28T12:16:23.223Z,4.00
2022-10-28T12:18:54.132Z,4.00
2022-10-28T12:21:28.024Z,3.50
2022-10-28T12:23:57.231Z,4.00
2022-10-28T12:26:33.226Z,4.00
2022-10-28T12:29:03.201Z,3.42
2022-10-28T12:31:35.800Z,3.78
2022-10-28T12:34:05.987Z,3.55
2022-10-28T12:36:35.856Z,3.80
2022-10-28T12:39:07.459Z,3.53
2022-10-28T12:41:46.747Z,3.38
2022-10-28T12:44:15.616Z,3.30
2022-10-28T12:46:58.055Z,3.50
2022-10-28T12:49:36.676Z,3.38
2022-10-28T12:52:10.847Z,3.47
2022-10-28T12:54:44.435Z,4.03
2022-10-28T12:59:41.253Z,3.63
2022-10-28T13:02:16.477Z,3.22
2022-10-28T13:04:43.927Z,3.80
2022-10-28T13:07:22.243Z,3.45
2022-10-28T13:09:58.343Z,3.75
2022-10-28T13:12:36.009Z,4.13
2022-10-28T13:15:20.667Z,4.20
2022-10-28T13:17:58.231Z,3.97
2022-10-28T13:20:31.822Z,3.90
2022-10-28T13:23:05.406Z,3.75
2022-10-28T13:25:42.412Z,4.00
2022-10-28T13:28:13.628Z,4.07
2022-10-28T13:30:52.904Z,4.07
2022-10-28T13:33:24.649Z,4.70
2022-10-28T13:38:26.140Z,4.07
2022-10-28T13:41:17.851Z,4.22
2022-10-28T13:44:00.588Z,4.00
2022-10-28T13:47:02.042Z,4.22
2022-10-28T13:49:31.177Z,4.10
2022-10-28T13:52:03.204Z,4.13
2022-10-28T13:54:37.122Z,3.90
2022-10-28T13:57:07.790Z,3.55
2022-10-28T13:59:47.667Z,4.18
2022-10-28T14:02:37.072Z,3.97
2022-10-28T14:05:08.634Z,4.10
2022-10-28T14:07:37.252Z,3.85
2022-10-28T14:10:20.947Z,4.15
2022-10-28T14:12:51.489Z,3.45
2022-10-28T14:15:21.741Z,4.20
2022-10-28T14:17:52.296Z,3.53
2022-10-28T14:20:28.870Z,3.95
2022-10-28T14:22:56.740Z,4.20
2022-10-28T14:25:59.736Z,4.25
2022-10-28T14:28:52.960Z,4.55
2022-10-28T14:31:34.053Z,3.72
2022-10-28T14:34:44.346Z,4.20
2022-10-28T14:37:28.638Z,4.28
2022-10-28T14:40:14.872Z,4.00
2022-10-28T14:43:11.647Z,3.90
2022-10-28T14:45:48.986Z,4.03
2022-10-28T14:48:41.310Z,4.32
2022-10-28T14:51:10.729Z,4.28
2022-10-28T14:53:41.929Z,4.43
2022-10-28T14:56:11.688Z,3.88
2022-10-28T14:58:40.586Z,3.88
2022-10-28T15:01:21.753Z,3.85
2022-10-28T15:03:51.471Z,4.35
2022-10-28T15:06:26.935Z,4.15
2022-10-28T15:08:55.792Z,3.80
2022-10-28T15:11:23.510Z,4.05
2022-10-28T15:13:53.268Z,4.32
2022-10-28T15:16:22.367Z,4.82
2022-10-28T15:18:53.818Z,4.35
2022-10-28T15:21:23.016Z,4.55
2022-10-28T15:24:01.740Z,4.78
2022-10-28T15:26:29.414Z,4.10
2022-10-28T15:28:56.848Z,4.28
2022-10-28T15:31:24.233Z,4.22
2022-10-28T15:33:51.648Z,4.45
2022-10-28T15:36:21.045Z,4.15
2022-10-28T15:38:50.002Z,4.90
2022-10-28T15:41:42.431Z,5.30
2022-10-28T15:44:25.471Z,4.53
2022-10-28T15:46:52.977Z,4.90
2022-10-28T15:49:37.673Z,5.28
2022-10-28T15:52:22.396Z,4.95
2022-10-28T15:54:56.583Z,4.97
2022-10-28T15:57:26.942Z,4.78
2022-10-28T16:00:20.664Z,5.65
2022-10-28T16:02:55.579Z,4.95
2022-10-28T16:05:53.484Z,5.35
2022-10-28T16:08:24.111Z,5.25
2022-10-28T16:10:54.651Z,5.65
2022-10-28T16:13:25.821Z,5.15
2022-10-28T16:15:59.102Z,4.82
2022-10-28T16:18:28.283Z,5.35
2022-10-28T16:20:56.298Z,5.60
2022-10-28T16:23:25.032Z,6.28
2022-10-28T16:25:52.362Z,6.00
2022-10-28T16:28:22.569Z,6.38
2022-10-28T16:30:56.139Z,5.38
2022-10-28T16:33:28.886Z,5.45
2022-10-28T16:35:56.502Z,5.05
2022-10-28T16:38:23.869Z,5.30
2022-10-28T16:40:52.456Z,5.97
2022-10-28T16:43:21.300Z,5.47
2022-10-28T16:45:49.047Z,5.35
2022-10-28T16:48:18.976Z,5.53
2022-10-28T16:50:50.322Z,6.00
2022-10-28T16:53:17.697Z,5.95
2022-10-28T16:55:45.050Z,6.90
2022-10-28T16:58:12.780Z,7.60
2022-10-28T17:00:40.615Z,8.25
2022-10-28T17:03:08.574Z,10.00
2022-10-28T17:05:37.227Z,9.77
2022-10-28T17:08:07.368Z,9.20
2022-10-28T17:10:37.167Z,21.02
2022-10-28T17:13:04.527Z,42.90
2022-10-28T17:15:31.949Z,60.22
2022-10-28T17:17:59.533Z,43.78
2022-10-28T17:20:27.051Z,34.13
2022-10-28T17:22:58.027Z,29.45
2022-10-28T17:25:25.798Z,19.40
2022-10-28T17:27:54.686Z,21.02
2022-10-28T17:30:22.349Z,17.35
2022-10-28T17:32:51.066Z,13.90
2022-10-28T17:35:18.746Z,12.05
2022-10-28T17:37:46.144Z,10.63
2022-10-28T17:40:14.959Z,8.75
2022-10-28T17:42:42.307Z,6.60
2022-10-28T17:45:10.780Z,7.57
2022-10-28T17:47:38.184Z,7.70
2022-10-28T17:50:06.408Z,7.05
2022-10-28T17:52:37.412Z,7.22
2022-10-28T17:55:06.804Z,8.63
2022-10-28T17:57:35.464Z,11.85
2022-10-28T18:00:03.400Z,19.48
2022-10-28T18:02:40.021Z,9.60
2022-10-28T18:05:07.996Z,9.38
2022-10-28T18:07:35.394Z,11.32
2022-10-28T18:10:02.775Z,14.60
2022-10-28T18:12:30.120Z,22.98
2022-10-28T18:14:58.791Z,21.63
2022-10-28T18:17:26.187Z,28.55
2022-10-28T18:19:53.608Z,29.20
2022-10-28T18:22:20.968Z,21.45
2022-10-28T18:24:48.418Z,18.63
2022-10-28T18:27:15.992Z,12.55
2022-10-28T18:29:43.409Z,8.80
2022-10-28T18:32:12.076Z,11.05
2022-10-28T18:34:39.623Z,12.18
2022-10-28T18:37:09.524Z,11.63
2022-10-28T18:39:36.866Z,10.15
2022-10-28T18:42:04.370Z,9.20
2022-10-28T18:44:32.479Z,10.55
2022-10-28T18:47:00.000Z,12.20
2022-10-28T18:49:28.640Z,9.70
2022-10-28T18:51:56.005Z,8.57
2022-10-28T18:54:23.348Z,7.10
2022-10-28T18:56:53.710Z,6.90
2022-10-28T18:59:24.035Z,7.20
2022-10-28T19:01:51.525Z,6.00
2022-10-28T19:04:18.968Z,5.80
2022-10-28T19:06:47.616Z,6.40
2022-10-28T19:09:14.955Z,6.22
2022-10-28T19:11:42.335Z,6.38
2022-10-28T19:14:10.280Z,7.00
2022-10-28T19:16:37.776Z,5.97
2022-10-28T19:19:06.011Z,6.47
2022-10-28T19:21:34.123Z,7.20
2022-10-28T19:24:03.457Z,6.80
2022-10-28T19:26:31.826Z,6.15
2022-10-28T19:28:59.263Z,6.72
2022-10-28T19:31:27.722Z,6.38
2022-10-28T19:33:55.449Z,6.13
2022-10-28T19:36:24.472Z,6.07
2022-10-28T19:38:53.552Z,6.07
2022-10-28T19:41:23.758Z,6.05
2022-10-28T19:43:56.910Z,6.32
2022-10-28T19:46:26.862Z,6.40
2022-10-28T19:48:56.152Z,6.70
2022-10-28T19:51:25.037Z,6.47
2022-10-28T19:53:55.243Z,6.55
2022-10-28T19:56:24.501Z,6.90
2022-10-28T19:58:53.339Z,6.28
2022-10-28T20:01:21.447Z,6.65
2022-10-28T20:03:50.790Z,6.40
2022-10-28T20:06:19.594Z,6.97
2022-10-28T20:08:48.021Z,6.70
2022-10-28T20:11:20.107Z,6.90
2022-10-28T20:13:54.281Z,6.90
2022-10-28T20:16:21.878Z,7.03
2022-10-28T20:18:49.229Z,6.75
2022-10-28T20:21:17.791Z,6.90
2022-10-28T20:23:46.500Z,7.85
2022-10-28T20:26:14.510Z,8.05
2022-10-28T20:28:41.961Z,7.15
2022-10-28T20:31:12.204Z,6.60
2022-10-28T20:33:41.409Z,7.28
2022-10-28T20:36:22.190Z,6.93
2022-10-28T20:38:49.540Z,6.47
2022-10-28T20:41:16.889Z,7.40
2022-10-28T20:43:44.233Z,6.47
2022-10-28T20:46:17.518Z,6.18
2022-10-28T20:48:47.229Z,6.70
2022-10-28T20:51:14.641Z,6.57
2022-10-28T20:53:42.373Z,6.35
2022-10-28T20:56:16.060Z,6.82
2022-10-28T20:58:43.411Z,7.10
2022-10-28T21:01:14.929Z,6.38
2022-10-28T21:03:42.808Z,6.15
2022-10-28T21:06:10.774Z,6.90
2022-10-28T21:08:38.477Z,7.25
2022-10-28T21:11:06.888Z,7.43
2022-10-28T21:13:34.610Z,6.80
2022-10-28T21:16:04.824Z,6.70
2022-10-28T21:18:33.862Z,6.50
2022-10-28T21:21:01.273Z,6.35
2022-10-28T21:23:29.098Z,7.18
2022-10-28T21:25:57.395Z,6.57
2022-10-28T21:28:25.158Z,7.10
2022-10-28T21:30:52.496Z,6.35
2022-10-28T21:33:19.839Z,6.43
2022-10-28T21:35:57.437Z,6.70
2022-10-28T21:38:24.879Z,6.78
2022-10-28T21:40:59.679Z,6.22
2022-10-28T21:43:28.387Z,6.60
2022-10-28T21:45:55.787Z,7.20
2022-10-28T21:48:23.178Z,6.75
2022-10-28T21:50:51.816Z,6.70
2022-10-28T21:53:20.817Z,6.85
2022-10-28T21:55:49.954Z,6.90
2022-10-28T21:58:18.805Z,6.05
2022-10-28T22:00:47.013Z,6.88
2022-10-28T22:03:14.660Z,6.97
2022-10-28T22:05:50.094Z,6.35
2022-10-28T22:08:17.737Z,6.82
2022-10-28T22:10:46.396Z,7.35
2022-10-28T22:13:13.872Z,7.00
2022-10-28T22:15:41.355Z,6.60
2022-10-28T22:18:08.699Z,6.45
2022-10-28T22:20:36.048Z,7.55
2022-10-28T22:23:03.396Z,6.70
2022-10-28T22:25:30.730Z,6.43
2022-10-28T22:27:59.379Z,6.70
2022-10-28T22:30:26.768Z,7.22
2022-10-28T22:32:54.438Z,7.88
2022-10-28T22:35:21.980Z,5.78
2022-10-28T22:37:49.320Z,5.93
2022-10-28T22:40:16.684Z,7.07
2022-10-28T22:42:44.031Z,6.55
2022-10-28T22:45:12.764Z,6.68
2022-10-28T22:47:40.124Z,6.60
2022-10-28T22:50:07.809Z,6.75
2022-10-28T22:52:35.170Z,6.07
2022-10-28T22:55:02.521Z,6.68
2022-10-28T22:57:29.874Z,6.53
2022-10-28T22:59:57.225Z,6.32
2022-10-28T23:02:26.084Z,6.97
2022-10-28T23:04:53.507Z,6.97
2022-10-28T23:07:21.075Z,6.95
2022-10-28T23:09:48.461Z,6.63
2022-10-28T23:12:15.792Z,7.22
2022-10-28T23:14:43.133Z,6.90
2022-10-28T23:17:10.480Z,7.05
2022-10-28T23:19:39.123Z,7.53
2022-10-28T23:22:06.477Z,7.05
2022-10-28T23:24:33.820Z,6.88
2022-10-28T23:27:01.165Z,7.30
2022-10-28T23:29:28.539Z,6.90
2022-10-28T23:31:55.870Z,6.93
2022-10-28T23:34:23.213Z,6.10
2022-10-28T23:36:54.069Z,6.72
2022-10-28T23:39:21.605Z,6.57
2022-10-28T23:41:50.443Z,6.40
2022-10-28T23:44:17.869Z,6.32
2022-10-28T23:46:45.209Z,6.55
2022-10-28T23:49:12.607Z,6.72
2022-10-28T23:51:39.950Z,6.38
2022-10-28T23:54:08.934Z,6.55
2022-10-28T23:56:36.263Z,6.15
2022-10-28T23:59:03.594Z,6.68
